Time;durP1;ratioP1;P1;durP2;ratioP2;P2;SDS_P1;SDS_P2;PMS_P1;PMS_P2;Temp;Humidity;BMP_temperature;BMP_pressure;BME280_temperature;BME280_humidity;BME280_pressure;Samples;Min_cycle;Max_cycle;Signal;HPM_P1;HPM_P2
2023/01/20 00:00:29;;;;;;;9.73;8.10;;;;;;;5.79;51.16;97205.75;8515722;27;20321;-74
2023/01/20 00:04:32;;;;;;;10.77;8.80;;;;;;;5.68;51.37;97201.00;8515399;27;20235;-74
2023/01/20 00:08:35;;;;;;;10.87;8.53;;;;;;;5.81;51.12;97217.63;8514115;27;20227;-73
2023/01/20 00:12:38;;;;;;;9.93;8.27;;;;;;;5.87;50.95;97216.56;8514858;27;20268;-73
2023/01/20 00:16:42;;;;;;;9.53;8.50;;;;;;;5.87;51.18;97219.97;8515338;27;20417;-72
2023/01/20 00:20:45;;;;;;;10.93;8.93;;;;;;;5.78;51.42;97229.75;8514900;27;20230;-74
2023/01/20 00:24:48;;;;;;;10.00;9.00;;;;;;;5.78;51.56;97229.75;8514331;27;20235;-74
2023/01/20 00:28:53;;;;;;;10.43;8.63;;;;;;;5.87;51.41;97240.53;8514230;27;20262;-74
2023/01/20 00:32:58;;;;;;;10.37;8.67;;;;;;;5.78;51.68;97240.88;8514252;27;20334;-74
2023/01/20 00:37:00;;;;;;;10.80;8.67;;;;;;;5.76;51.38;97240.09;8514148;27;20233;-74
2023/01/20 00:41:04;;;;;;;10.33;8.30;;;;;;;5.79;52.05;97236.59;8514132;27;20224;-74
2023/01/20 00:45:07;;;;;;;9.57;8.40;;;;;;;5.85;51.93;97244.91;8513666;27;20222;-74
2023/01/20 00:49:12;;;;;;;10.70;8.77;;;;;;;5.83;51.63;97245.84;8513750;27;20222;-74
2023/01/20 00:53:15;;;;;;;10.07;9.00;;;;;;;5.83;51.52;97251.00;8513718;27;20252;-74
2023/01/20 00:57:17;;;;;;;10.57;9.13;;;;;;;5.73;51.99;97247.06;8513640;27;20222;-74
2023/01/20 01:01:20;;;;;;;11.63;9.20;;;;;;;5.81;52.52;97270.78;8513691;27;20398;-74
2023/01/20 01:05:25;;;;;;;10.53;8.87;;;;;;;5.76;52.58;97267.53;8513344;27;20407;-74
2023/01/20 01:09:28;;;;;;;10.33;9.27;;;;;;;5.77;52.87;97269.19;8513271;27;20220;-74
2023/01/20 01:13:31;;;;;;;11.43;9.40;;;;;;;5.71;53.41;97277.13;8513138;27;20424;-74
2023/01/20 01:17:33;;;;;;;10.97;9.87;;;;;;;5.57;53.90;97264.78;8513076;27;20220;-74
2023/01/20 01:21:38;;;;;;;11.47;9.20;;;;;;;5.66;53.63;97269.59;8513154;27;20245;-74
2023/01/20 01:25:41;;;;;;;10.53;9.27;;;;;;;4.88;53.39;97153.34;8512842;27;20226;-74
2023/01/20 01:29:44;;;;;;;11.07;9.87;;;;;;;5.81;53.13;97293.91;8512599;27;20245;-74
2023/01/20 01:33:47;;;;;;;11.73;10.30;;;;;;;5.79;53.03;97293.94;8512970;27;20226;-74
2023/01/20 01:37:51;;;;;;;11.00;9.90;;;;;;;5.77;53.08;97303.44;8512639;27;20251;-74
2023/01/20 01:41:54;;;;;;;13.23;9.77;;;;;;;5.85;53.04;97303.16;8512649;27;20237;-74
2023/01/20 01:45:57;;;;;;;12.53;9.93;;;;;;;5.83;53.35;97299.81;8512661;27;20230;-74
2023/01/20 01:49:59;;;;;;;10.77;9.67;;;;;;;5.85;53.00;97311.72;8512793;27;20226;-74
2023/01/20 01:54:07;;;;;;;12.73;9.83;;;;;;;5.84;53.47;97312.59;8512494;27;20226;-74
2023/01/20 01:58:12;;;;;;;11.67;10.47;;;;;;;5.76;53.95;97316.34;8512482;27;20222;-74
2023/01/20 02:02:15;;;;;;;12.43;10.33;;;;;;;5.75;54.14;97314.66;8512652;27;20240;-74
2023/01/20 02:06:28;;;;;;;12.17;10.00;;;;;;;5.70;54.18;97304.53;8512519;27;20226;-74
2023/01/20 02:10:32;;;;;;;11.70;10.50;;;;;;;5.66;54.78;97323.53;8512403;27;20244;-74
2023/01/20 02:14:37;;;;;;;12.07;10.10;;;;;;;5.68;54.57;97314.03;8512462;27;20237;-74
2023/01/20 02:18:50;;;;;;;12.07;10.17;;;;;;;5.63;54.98;97305.66;8512305;27;20237;-74
2023/01/20 02:22:57;;;;;;;12.93;11.17;;;;;;;5.69;54.94;97320.84;8511798;27;20233;-74
2023/01/20 02:27:06;;;;;;;13.97;10.40;;;;;;;5.53;55.33;97304.31;8512162;27;20226;-74
2023/01/20 02:31:42;;;;;;;13.43;11.20;;;;;;;5.58;55.30;97322.94;8516353;27;20226;-74
2023/01/20 02:35:48;;;;;;;12.00;10.80;;;;;;;5.69;55.03;97328.53;8552016;27;20525;-74
2023/01/20 02:39:58;;;;;;;12.67;11.33;;;;;;;5.58;55.55;97331.50;8552224;27;20232;-74
2023/01/20 02:44:08;;;;;;;14.17;11.77;;;;;;;5.66;55.37;97326.09;8551988;27;20245;-74
2023/01/20 02:48:17;;;;;;;11.97;10.77;;;;;;;5.75;55.38;97330.94;8552078;27;20226;-74
2023/01/20 02:52:23;;;;;;;12.63;10.80;;;;;;;5.74;55.41;97338.69;8552146;27;20233;-74
2023/01/20 02:56:28;;;;;;;12.33;11.00;;;;;;;5.73;55.58;97342.13;8551858;27;20233;-74
2023/01/20 03:00:35;;;;;;;12.30;11.03;;;;;;;5.70;55.93;97331.97;8551685;27;20547;-73
2023/01/20 03:04:41;;;;;;;12.67;11.47;;;;;;;5.64;55.51;97322.75;8551575;27;20225;-74
2023/01/20 03:08:47;;;;;;;14.50;12.40;;;;;;;5.51;56.03;97335.16;8550931;27;20244;-73
2023/01/20 03:12:52;;;;;;;14.70;12.37;;;;;;;5.41;56.10;97305.56;8551335;27;20241;-74
2023/01/20 03:16:55;;;;;;;13.53;12.13;;;;;;;5.64;55.83;97343.31;8551192;27;20234;-73
2023/01/20 03:20:59;;;;;;;14.27;12.53;;;;;;;5.63;55.90;97337.31;8551172;27;20284;-73
2023/01/20 03:25:03;;;;;;;13.07;11.50;;;;;;;5.62;56.07;97342.50;8550772;27;20236;-73
2023/01/20 03:29:10;;;;;;;12.87;11.57;;;;;;;5.73;55.68;97339.56;8550185;27;20232;-74
2023/01/20 03:33:14;;;;;;;13.87;12.10;;;;;;;5.73;55.89;97335.28;8550838;27;20213;-74
2023/01/20 03:37:17;;;;;;;15.10;12.60;;;;;;;5.66;56.00;97331.25;8550648;27;20219;-74
2023/01/20 03:41:28;;;;;;;14.20;12.33;;;;;;;5.12;55.91;97256.03;8550251;27;20537;-74
2023/01/20 03:45:39;;;;;;;15.33;12.97;;;;;;;5.62;55.66;97340.78;8550124;27;20525;-73
2023/01/20 03:49:46;;;;;;;14.90;12.83;;;;;;;5.53;55.75;97355.66;8549459;27;20293;-74
2023/01/20 03:53:52;;;;;;;14.40;12.90;;;;;;;5.54;56.20;97350.50;8549969;27;20517;-73
2023/01/20 03:58:02;;;;;;;14.73;13.17;;;;;;;5.52;56.12;97347.13;8549505;27;20233;-73
2023/01/20 04:02:06;;;;;;;14.43;12.93;;;;;;;5.52;56.26;97346.28;8549838;27;20241;-73
2023/01/20 04:06:11;;;;;;;17.03;14.80;;;;;;;5.60;56.07;97357.97;8549301;27;20226;-73
2023/01/20 04:10:17;;;;;;;15.40;13.80;;;;;;;5.51;56.05;97345.44;8549530;27;20225;-74
2023/01/20 04:14:21;;;;;;;16.57;14.13;;;;;;;5.58;55.84;97369.19;8549154;27;20230;-74
2023/01/20 04:18:24;;;;;;;15.07;13.30;;;;;;;5.52;56.58;97377.94;8549030;27;20234;-73
2023/01/20 04:22:32;;;;;;;15.20;13.50;;;;;;;5.55;56.39;97370.13;8548725;27;20226;-73
2023/01/20 04:26:35;;;;;;;15.70;14.00;;;;;;;5.64;56.43;97384.41;8548732;27;20237;-73
2023/01/20 04:30:39;;;;;;;16.90;14.27;;;;;;;5.48;56.56;97376.34;8548622;27;20221;-74
2023/01/20 04:34:42;;;;;;;15.97;14.33;;;;;;;5.53;56.58;97389.88;8548035;27;20402;-73
2023/01/20 04:38:45;;;;;;;16.90;15.10;;;;;;;5.51;56.73;97386.53;8548656;27;20252;-74
2023/01/20 04:42:48;;;;;;;17.43;15.53;;;;;;;5.43;56.54;97391.09;8548535;27;20442;-74
2023/01/20 04:46:56;;;;;;;18.70;16.03;;;;;;;5.39;56.61;97392.09;8548207;27;20229;-74
2023/01/20 04:51:03;;;;;;;18.73;15.97;;;;;;;5.43;56.41;97393.66;8548127;27;20421;-74
2023/01/20 04:55:07;;;;;;;18.37;15.67;;;;;;;5.49;56.35;97391.72;8547733;27;20218;-74
2023/01/20 04:59:10;;;;;;;17.80;15.93;;;;;;;5.40;56.53;97398.88;8547911;27;20221;-74
2023/01/20 05:03:14;;;;;;;17.93;15.47;;;;;;;5.24;56.31;97406.25;8548264;27;20396;-74
2023/01/20 05:07:17;;;;;;;18.30;15.13;;;;;;;5.38;56.63;97404.06;8548039;27;20225;-74
2023/01/20 05:11:19;;;;;;;17.17;15.27;;;;;;;5.39;56.29;97410.06;8548186;27;20229;-74
2023/01/20 05:15:22;;;;;;;18.50;16.60;;;;;;;5.22;56.51;97414.00;8547831;27;20225;-75
2023/01/20 05:19:27;;;;;;;19.53;17.10;;;;;;;5.27;56.59;97422.41;8548515;27;20539;-74
2023/01/20 05:23:29;;;;;;;19.80;17.00;;;;;;;5.36;56.46;97428.97;8548543;27;20227;-74
2023/01/20 05:27:34;;;;;;;18.30;16.37;;;;;;;5.35;56.03;97436.69;8548493;27;20232;-74
2023/01/20 05:31:41;;;;;;;17.60;15.70;;;;;;;5.38;56.28;97436.63;8548465;27;20225;-74
2023/01/20 05:35:46;;;;;;;18.80;16.13;;;;;;;5.34;56.43;97448.72;8548641;27;20377;-74
2023/01/20 05:39:49;;;;;;;18.03;16.07;;;;;;;5.39;56.42;97451.16;8548417;27;20422;-74
2023/01/20 05:43:53;;;;;;;18.03;15.87;;;;;;;5.43;56.27;97463.84;8548683;27;20221;-74
2023/01/20 05:47:56;;;;;;;19.23;17.00;;;;;;;5.43;56.51;97468.97;8548636;27;20234;-74
2023/01/20 05:52:01;;;;;;;19.80;16.43;;;;;;;5.49;56.06;97473.06;8548394;27;20225;-73
2023/01/20 05:56:05;;;;;;;18.70;16.80;;;;;;;5.52;56.21;97480.69;8547677;27;20224;-73
2023/01/20 06:00:09;;;;;;;20.13;16.50;;;;;;;5.46;56.22;97497.13;8548045;27;20225;-73
2023/01/20 06:04:12;;;;;;;17.10;15.37;;;;;;;5.59;56.17;97500.13;8548512;27;20233;-74
2023/01/20 06:08:16;;;;;;;18.63;16.67;;;;;;;5.57;56.33;97498.50;8553716;27;20229;-74
2023/01/20 06:12:25;;;;;;;19.60;16.97;;;;;;;5.45;56.56;97498.00;8551855;27;20225;-73
2023/01/20 06:16:31;;;;;;;19.77;17.30;;;;;;;5.37;56.74;97502.56;8541642;27;20265;-73
2023/01/20 06:20:33;;;;;;;19.03;16.27;;;;;;;5.53;56.17;97508.03;8553178;27;20234;-74
2023/01/20 06:24:38;;;;;;;19.20;16.43;;;;;;;5.52;56.30;97508.94;8553001;27;20529;-73
2023/01/20 06:28:40;;;;;;;18.67;16.70;;;;;;;5.54;56.34;97512.31;8552808;27;20236;-73
2023/01/20 06:32:46;;;;;;;21.13;18.50;;;;;;;5.48;56.31;97513.34;8551910;27;20225;-73
2023/01/20 06:36:49;;;;;;;19.40;17.30;;;;;;;5.51;56.39;97527.78;8552693;27;20233;-74
2023/01/20 06:40:57;;;;;;;19.47;16.87;;;;;;;5.53;55.98;97527.75;8552528;27;20237;-73
2023/01/20 06:45:00;;;;;;;19.47;17.37;;;;;;;5.56;56.18;97532.78;8552221;27;20227;-73
2023/01/20 06:49:03;;;;;;;21.00;18.57;;;;;;;5.26;56.90;97541.38;8551892;27;20225;-72
2023/01/20 06:53:07;;;;;;;20.87;18.63;;;;;;;5.41;57.15;97544.38;8552145;27;20229;-72
2023/01/20 06:57:11;;;;;;;21.33;18.40;;;;;;;5.40;56.58;97546.09;8551905;27;20228;-73
2023/01/20 07:01:16;;;;;;;20.07;17.67;;;;;;;5.46;56.40;97547.63;8552019;27;20563;-73
2023/01/20 07:05:19;;;;;;;21.00;17.80;;;;;;;5.40;56.84;97561.50;8551499;27;20225;-72
2023/01/20 07:09:22;;;;;;;20.53;18.30;;;;;;;5.47;56.52;97575.00;8551490;27;20240;-73
2023/01/20 07:13:26;;;;;;;19.93;17.53;;;;;;;5.47;56.56;97575.84;8551565;27;20222;-73
2023/01/20 07:17:29;;;;;;;22.63;20.10;;;;;;;5.43;56.49;97576.84;8551124;27;20221;-73
2023/01/20 07:21:32;;;;;;;25.10;21.50;;;;;;;5.43;56.24;97576.84;8551087;27;20240;-73
2023/01/20 07:25:36;;;;;;;22.30;19.97;;;;;;;5.41;56.35;97590.63;8550649;27;20222;-73
2023/01/20 07:29:41;;;;;;;20.70;18.37;;;;;;;5.49;56.32;97586.09;8550956;27;20495;-74
2023/01/20 07:33:44;;;;;;;19.60;17.53;;;;;;;5.52;56.59;97593.72;8549906;27;20518;-74
2023/01/20 07:37:47;;;;;;;21.73;18.63;;;;;;;5.46;56.55;97602.44;8550848;27;20225;-74
2023/01/20 07:41:49;;;;;;;20.67;17.57;;;;;;;5.48;56.67;97594.66;8550274;27;20223;-74
2023/01/20 07:45:55;;;;;;;22.33;17.67;;;;;;;5.60;56.30;97598.63;8550072;27;20232;-75
2023/01/20 07:49:58;;;;;;;19.73;17.30;;;;;;;5.66;56.08;97598.41;8549875;27;20230;-74
2023/01/20 07:54:03;;;;;;;19.90;16.87;;;;;;;5.76;55.81;97607.50;8550106;27;20570;-74
2023/01/20 07:58:06;;;;;;;18.63;16.63;;;;;;;5.76;56.04;97610.09;8549915;27;20504;-74
2023/01/20 08:02:10;;;;;;;20.13;17.23;;;;;;;5.72;56.05;97618.78;8549949;27;20223;-74
2023/01/20 08:06:14;;;;;;;19.83;17.70;;;;;;;5.70;56.37;97627.44;8549610;27;20323;-74
2023/01/20 08:10:17;;;;;;;18.27;16.37;;;;;;;5.83;56.15;97626.16;8549263;27;20238;-75
2023/01/20 08:14:20;;;;;;;20.43;17.67;;;;;;;5.83;56.25;97629.56;8549401;27;20229;-75
2023/01/20 08:18:24;;;;;;;19.00;17.00;;;;;;;5.93;55.82;97642.16;8549134;27;20572;-74
2023/01/20 08:22:27;;;;;;;19.70;17.70;;;;;;;6.01;55.61;97641.03;8548825;27;20520;-74
2023/01/20 08:26:30;;;;;;;18.50;16.50;;;;;;;5.92;56.18;97643.88;8548030;27;20223;-74
2023/01/20 08:30:33;;;;;;;19.07;16.63;;;;;;;6.10;55.48;97644.22;8548678;27;20232;-73
2023/01/20 08:34:39;;;;;;;18.37;16.27;;;;;;;6.09;55.62;97650.25;8548600;27;20322;-74
2023/01/20 08:38:42;;;;;;;18.20;16.27;;;;;;;5.93;55.84;97657.56;8548047;27;20442;-74
2023/01/20 08:42:45;;;;;;;19.87;17.77;;;;;;;5.95;55.79;97664.38;8548273;27;20225;-74
2023/01/20 08:46:51;;;;;;;20.17;17.57;;;;;;;5.93;55.67;97662.72;8548203;27;20229;-73
2023/01/20 08:50:55;;;;;;;20.37;17.50;;;;;;;5.85;56.07;97673.22;8548172;27;20240;-73
2023/01/20 08:54:58;;;;;;;19.73;17.63;;;;;;;6.04;55.86;97676.09;8548146;27;20375;-74
2023/01/20 08:59:02;;;;;;;19.43;16.87;;;;;;;6.06;55.40;97682.03;8548123;27;20279;-75
2023/01/20 09:03:04;;;;;;;20.13;17.87;;;;;;;6.00;55.76;97688.22;8547771;27;20240;-74
2023/01/20 09:07:10;;;;;;;19.10;17.10;;;;;;;5.97;55.74;97695.16;8547760;27;20244;-74
2023/01/20 09:11:15;;;;;;;20.27;18.17;;;;;;;6.11;55.53;97705.88;8547530;27;20240;-75
2023/01/20 09:15:19;;;;;;;18.73;16.07;;;;;;;5.99;55.83;97707.06;8547749;27;20516;-75
2023/01/20 09:19:22;;;;;;;16.87;15.07;;;;;;;6.03;55.78;97711.22;8547850;27;20230;-75
2023/01/20 09:23:26;;;;;;;16.77;14.97;;;;;;;6.06;55.78;97720.59;8547273;27;20513;-74
2023/01/20 09:27:30;;;;;;;17.57;15.73;;;;;;;6.15;55.52;97725.47;8547481;27;20276;-74
2023/01/20 09:31:32;;;;;;;16.33;14.63;;;;;;;6.08;55.49;97723.97;8547313;27;20290;-75
2023/01/20 09:35:36;;;;;;;18.10;16.17;;;;;;;6.10;55.19;97736.78;8546971;27;20221;-74
2023/01/20 09:44:08;;;;;;;14.37;12.87;;;;;;;6.16;55.33;97737.41;8554014;27;20216;-74
2023/01/20 09:56:56;;;;;;;17.63;14.03;;;;;;;6.15;55.30;97737.47;8534652;27;20409;-74
2023/01/20 10:01:06;;;;;;;15.93;10.40;;;;;;;9.57;82.49;97767.09;8553531;27;20414;-73
2023/01/20 10:05:13;;;;;;;11.27;10.17;;;;;;;10.78;60.13;97763.31;8552890;27;20225;-73
2023/01/20 10:09:21;;;;;;;15.13;13.53;;;;;;;8.54;51.74;97759.25;8553466;27;20224;-74
2023/01/20 10:13:31;;;;;;;14.63;13.20;;;;;;;7.94;52.28;97760.66;8553375;27;20554;-74
2023/01/20 10:17:38;;;;;;;14.13;12.67;;;;;;;7.28;52.60;97727.81;8553208;27;20543;-73
2023/01/20 10:21:44;;;;;;;14.80;13.33;;;;;;;7.41;53.16;97747.09;8552823;27;20548;-73
2023/01/20 10:25:49;;;;;;;13.23;12.00;;;;;;;7.36;52.48;97748.16;8552239;27;20236;-72
2023/01/20 10:29:58;;;;;;;13.17;11.93;;;;;;;7.11;52.72;97743.84;8552407;27;20225;-73
2023/01/20 10:34:07;;;;;;;13.90;12.47;;;;;;;7.13;53.19;97761.81;8552360;27;20221;-74
2023/01/20 10:38:20;;;;;;;17.33;15.13;;;;;;;6.89;53.08;97761.72;8552183;27;20317;-73
2023/01/20 10:42:23;;;;;;;14.30;12.87;;;;;;;6.97;53.40;97758.91;8552560;27;20383;-73
2023/01/20 10:46:49;;;;;;;14.70;13.07;;;;;;;6.91;52.96;97761.66;8552281;27;20221;-74
2023/01/20 10:50:56;;;;;;;14.80;13.20;;;;;;;6.98;53.39;97761.41;8550719;27;20233;-74
2023/01/20 10:55:06;;;;;;;13.77;12.20;;;;;;;7.07;52.96;97768.00;8552104;27;20527;-70
2023/01/20 10:59:13;;;;;;;16.17;14.20;;;;;;;6.79;53.66;97750.06;8551688;27;20232;-73
2023/01/20 11:03:19;;;;;;;16.27;14.27;;;;;;;6.91;53.30;97766.81;8551739;27;20221;-74
2023/01/20 11:07:22;;;;;;;15.93;14.03;;;;;;;6.92;53.90;97771.94;8551374;27;20294;-72
2023/01/20 11:11:25;;;;;;;17.00;15.20;;;;;;;6.79;53.82;97773.22;8551650;27;20228;-74
2023/01/20 11:15:30;;;;;;;16.63;14.13;;;;;;;6.82;53.02;97767.97;8551536;27;20221;-73
2023/01/20 11:19:50;;;;;;;14.70;13.10;;;;;;;6.89;53.30;97771.19;8551335;27;20225;-74
2023/01/20 11:23:55;;;;;;;15.80;13.67;;;;;;;6.97;53.39;97782.94;8550875;27;20416;-74
2023/01/20 11:27:58;;;;;;;14.07;12.67;;;;;;;6.90;53.25;97780.59;8551018;27;20524;-74
2023/01/20 11:32:01;;;;;;;11.00;9.90;;;;;;;6.78;53.15;97769.81;8550774;27;20280;-74
2023/01/20 11:36:10;;;;;;;11.27;10.17;;;;;;;6.81;53.22;97777.41;8550641;27;20213;-74
2023/01/20 11:40:20;;;;;;;12.37;11.07;;;;;;;6.75;53.58;97789.66;8550565;27;20229;-74
2023/01/20 11:44:23;;;;;;;24.43;18.77;;;;;;;6.68;53.75;97793.31;8550265;27;20230;-73
2023/01/20 11:48:26;;;;;;;12.00;10.70;;;;;;;6.55;53.46;97774.81;8550155;27;20229;-72
2023/01/20 11:52:30;;;;;;;13.00;10.93;;;;;;;6.37;52.88;97740.22;8549831;27;20237;-72
2023/01/20 11:56:37;;;;;;;13.20;11.50;;;;;;;6.39;53.38;97765.00;8549854;27;20244;-72
2023/01/20 12:00:42;;;;;;;15.40;13.80;;;;;;;6.64;53.46;97782.25;8549739;27;20517;-72
2023/01/20 12:04:51;;;;;;;14.83;13.33;;;;;;;6.68;53.66;97796.72;8548451;27;20228;-73
2023/01/20 12:08:59;;;;;;;15.07;12.00;;;;;;;6.39;54.46;97795.88;8549709;27;20259;-73
2023/01/20 12:13:05;;;;;;;14.80;12.30;;;;;;;6.86;53.35;97808.16;8549529;27;20222;-72
2023/01/20 12:17:17;;;;;;;16.63;14.10;;;;;;;6.77;53.53;97811.88;8549087;27;20218;-73
2023/01/20 12:21:23;;;;;;;16.33;13.77;;;;;;;6.82;53.48;97815.16;8548939;27;20233;-72
2023/01/20 12:25:29;;;;;;;15.20;13.70;;;;;;;6.73;53.46;97800.00;8548842;27;20232;-71
2023/01/20 12:29:36;;;;;;;16.50;13.80;;;;;;;6.75;54.46;97810.25;8548729;27;20221;-71
2023/01/20 12:33:40;;;;;;;17.60;12.97;;;;;;;6.84;53.90;97815.09;8548679;27;20221;-71
2023/01/20 12:37:44;;;;;;;16.87;11.57;;;;;;;6.64;54.54;97816.56;8548333;27;20531;-75
2023/01/20 12:42:16;;;;;;;12.27;11.00;;;;;;;6.58;53.92;97814.16;8548760;27;20619;-73
2023/01/20 12:46:38;;;;;;;13.00;10.50;;;;;;;6.85;53.62;97819.34;8548554;27;20221;-73
2023/01/20 12:50:52;;;;;;;12.13;10.67;;;;;;;6.88;53.83;97826.16;8548327;27;20546;-73
2023/01/20 12:55:16;;;;;;;11.73;10.53;;;;;;;6.92;53.79;97817.44;8548238;27;20407;-73
2023/01/20 12:59:29;;;;;;;12.47;11.17;;;;;;;6.83;54.65;97837.44;8548200;27;20551;-73
2023/01/20 13:03:45;;;;;;;13.47;10.90;;;;;;;6.91;54.22;97836.34;8548304;27;20513;-73
2023/01/20 13:07:58;;;;;;;12.37;10.57;;;;;;;6.76;54.06;97838.50;8547342;27;20225;-73
2023/01/20 13:12:29;;;;;;;12.00;9.47;;;;;;;6.85;53.70;97837.38;8547847;27;20233;-72
2023/01/20 13:16:37;;;;;;;14.77;10.97;;;;;;;6.65;54.43;97833.69;8548065;27;20232;-73
2023/01/20 13:20:45;;;;;;;13.10;10.43;;;;;;;6.92;53.82;97836.28;8547268;27;20230;-74
2023/01/20 13:24:49;;;;;;;14.67;11.70;;;;;;;6.78;54.11;97834.16;8547703;27;20233;-74
2023/01/20 13:28:55;;;;;;;13.53;12.13;;;;;;;7.01;53.53;97842.88;8547384;27;20300;-74
2023/01/20 13:33:04;;;;;;;14.07;12.50;;;;;;;6.85;53.46;97843.38;8547536;27;20229;-73
2023/01/20 13:37:25;;;;;;;15.40;12.53;;;;;;;6.83;53.78;97847.72;8547704;27;20225;-74
2023/01/20 13:41:46;;;;;;;14.40;12.80;;;;;;;6.61;54.18;97857.84;8547753;27;20236;-74
2023/01/20 13:46:33;;;;;;;15.60;14.00;;;;;;;6.12;54.94;97810.41;8547737;27;20221;-73
2023/01/20 13:50:38;;;;;;;21.10;17.43;;;;;;;6.62;54.77;97872.38;8547252;27;20236;-75
2023/01/20 13:54:47;;;;;;;18.93;15.83;;;;;;;6.75;54.16;97875.41;8548166;27;20214;-73
2023/01/20 13:58:50;;;;;;;17.30;15.33;;;;;;;6.75;54.08;97877.16;8548149;27;20454;-75
2023/01/20 14:02:53;;;;;;;11.07;9.73;;;;;;;6.72;53.34;97875.53;8547407;27;20229;-74
2023/01/20 14:07:01;;;;;;;12.43;9.17;;;;;;;6.74;53.68;97878.91;8547363;27;20248;-74
2023/01/20 14:11:07;;;;;;;12.13;9.40;;;;;;;6.71;53.71;97880.72;8547335;27;20248;-74
2023/01/20 14:15:23;;;;;;;12.57;10.87;;;;;;;6.71;53.29;97883.28;8547366;27;20251;-74
2023/01/20 14:19:30;;;;;;;14.17;11.03;;;;;;;6.74;52.36;97875.47;8547543;27;20236;-74
2023/01/20 14:23:37;;;;;;;14.30;12.70;;;;;;;6.63;53.54;97886.09;8546854;27;20225;-73
2023/01/20 14:27:44;;;;;;;16.07;12.93;;;;;;;6.69;53.57;97875.59;8552275;27;20225;-73
2023/01/20 14:31:47;;;;;;;16.60;14.80;;;;;;;6.48;54.19;97876.25;8553298;27;20240;-72
2023/01/20 14:35:50;;;;;;;19.20;16.47;;;;;;;6.30;54.72;97908.47;8553021;27;20221;-74
2023/01/20 14:39:55;;;;;;;20.50;17.47;;;;;;;6.10;55.41;97903.91;8552998;27;20248;-73
2023/01/20 14:43:58;;;;;;;18.93;16.13;;;;;;;6.00;56.12;97921.31;8552930;27;20241;-73
2023/01/20 14:48:02;;;;;;;14.73;13.07;;;;;;;6.39;55.15;97921.91;8553340;27;20233;-73
2023/01/20 14:52:05;;;;;;;16.43;13.67;;;;;;;6.33;55.12;97924.66;8552751;27;20293;-72
2023/01/20 14:56:17;;;;;;;12.97;11.33;;;;;;;6.37;54.84;97933.16;8553095;27;20543;-75
2023/01/20 15:00:22;;;;;;;13.40;12.00;;;;;;;6.33;55.27;97934.97;8552628;27;20217;-73
2023/01/20 15:04:24;;;;;;;13.80;12.33;;;;;;;6.25;55.08;97939.47;8552567;27;20517;-74
2023/01/20 15:08:44;;;;;;;13.90;11.93;;;;;;;6.40;54.55;97945.94;8552886;27;20221;-73
2023/01/20 15:13:00;;;;;;;13.30;11.93;;;;;;;6.42;54.44;97945.00;8553377;27;20221;-73
2023/01/20 15:17:08;;;;;;;14.30;12.80;;;;;;;6.54;54.46;97950.69;8553797;27;20225;-74
2023/01/20 15:21:18;;;;;;;12.77;11.47;;;;;;;6.48;54.42;97954.28;8552386;27;20225;-73
2023/01/20 15:25:21;;;;;;;13.90;12.20;;;;;;;5.93;55.25;97948.84;8551706;27;20262;-72
2023/01/20 15:29:27;;;;;;;13.40;11.20;;;;;;;6.17;55.33;97956.81;8551814;27;20233;-73
2023/01/20 15:33:30;;;;;;;13.43;12.03;;;;;;;6.31;54.64;97964.19;8551958;27;20234;-74
2023/01/20 15:37:33;;;;;;;14.27;11.87;;;;;;;6.36;54.62;97968.31;8551821;27;20229;-74
2023/01/20 15:41:35;;;;;;;12.70;11.40;;;;;;;6.31;54.82;97974.47;8551231;27;20293;-75
2023/01/20 15:45:40;;;;;;;15.17;12.57;;;;;;;6.22;54.87;97978.13;8551543;27;20218;-74
2023/01/20 15:49:43;;;;;;;17.97;16.07;;;;;;;6.18;55.13;97979.09;8551483;27;20513;-73
2023/01/20 15:53:46;;;;;;;18.20;15.67;;;;;;;5.75;54.74;97879.94;8550954;27;20236;-74
2023/01/20 15:57:51;;;;;;;23.83;20.13;;;;;;;6.26;54.89;97974.59;8550949;27;20217;-74
2023/01/20 16:01:55;;;;;;;23.07;18.97;;;;;;;6.23;54.57;97984.97;8550480;27;20221;-74
2023/01/20 16:05:58;;;;;;;14.20;12.57;;;;;;;6.19;54.58;97991.91;8550442;27;20339;-74
2023/01/20 16:10:00;;;;;;;19.63;17.23;;;;;;;6.26;54.57;97988.31;8550524;27;20221;-75
2023/01/20 16:14:03;;;;;;;17.73;14.60;;;;;;;6.26;54.46;97979.72;8549575;27;20290;-74
2023/01/20 16:18:11;;;;;;;15.27;13.07;;;;;;;6.37;54.17;97995.72;8550646;27;20229;-74
2023/01/20 16:22:15;;;;;;;14.47;12.57;;;;;;;6.23;54.37;98000.41;8550159;27;20230;-74
2023/01/20 16:26:21;;;;;;;14.47;12.07;;;;;;;6.21;54.31;98004.75;8550104;27;20497;-74
2023/01/20 16:30:24;;;;;;;14.77;13.10;;;;;;;6.03;54.75;98003.47;8549657;27;20238;-75
2023/01/20 16:34:28;;;;;;;16.60;13.47;;;;;;;6.12;54.61;98017.84;8549952;27;20232;-73
2023/01/20 16:38:31;;;;;;;17.03;14.83;;;;;;;5.97;54.97;98014.75;8550956;27;20220;-74
2023/01/20 16:42:34;;;;;;;16.37;13.87;;;;;;;6.05;54.48;98024.84;8549468;27;20221;-74
2023/01/20 16:46:38;;;;;;;18.53;14.03;;;;;;;6.07;54.47;98031.66;8548936;27;20256;-74
2023/01/20 16:50:42;;;;;;;16.20;13.43;;;;;;;5.85;54.82;98020.19;8548318;27;20376;-75
2023/01/20 16:54:44;;;;;;;16.87;14.73;;;;;;;5.78;54.75;98041.75;8548068;27;20229;-75
2023/01/20 16:58:48;;;;;;;16.57;14.20;;;;;;;5.49;55.03;98004.75;8548062;27;20233;-74
2023/01/20 17:02:52;;;;;;;15.40;13.60;;;;;;;5.79;54.69;98051.19;8548503;27;20259;-75
2023/01/20 17:06:56;;;;;;;15.53;12.50;;;;;;;5.74;54.77;98053.00;8548581;27;20631;-75
2023/01/20 17:10:59;;;;;;;13.37;12.03;;;;;;;5.73;54.67;98053.88;8548390;27;20228;-75
2023/01/20 17:15:02;;;;;;;12.90;11.60;;;;;;;5.59;55.02;98052.47;8548136;27;20217;-75
2023/01/20 17:19:05;;;;;;;13.90;12.40;;;;;;;5.66;54.88;98059.16;8548315;27;20218;-74
2023/01/20 17:23:09;;;;;;;13.40;11.97;;;;;;;5.65;54.61;98057.47;8548037;27;20240;-76
2023/01/20 17:27:12;;;;;;;13.97;12.00;;;;;;;5.59;54.48;98049.06;8548469;27;20218;-75
2023/01/20 17:31:15;;;;;;;12.23;10.93;;;;;;;5.54;54.66;98062.03;8548082;27;20502;-73
2023/01/20 17:35:18;;;;;;;14.90;12.37;;;;;;;5.44;54.58;98069.06;8548038;27;20294;-74
2023/01/20 17:39:22;;;;;;;12.97;11.57;;;;;;;5.39;54.94;98070.91;8547996;27;20221;-75
2023/01/20 17:43:25;;;;;;;13.53;12.13;;;;;;;5.37;54.38;98072.66;8548006;27;20217;-74
2023/01/20 17:47:28;;;;;;;13.17;11.77;;;;;;;5.22;54.68;98073.81;8547831;27;20217;-72
2023/01/20 17:51:34;;;;;;;14.87;11.90;;;;;;;5.24;54.66;98084.06;8547381;27;20237;-74
2023/01/20 17:55:38;;;;;;;11.87;10.60;;;;;;;5.33;54.64;98091.59;8547687;27;20517;-73
2023/01/20 17:59:41;;;;;;;15.93;13.50;;;;;;;5.22;54.69;98096.09;8549363;27;20220;-71
2023/01/20 18:03:45;;;;;;;17.23;13.27;;;;;;;5.11;55.23;98095.47;8554434;27;20233;-71
2023/01/20 18:07:48;;;;;;;14.53;13.07;;;;;;;5.16;54.87;98096.22;8553996;27;20229;-70
2023/01/20 18:11:53;;;;;;;14.20;12.37;;;;;;;5.13;55.02;98098.84;8553623;27;20227;-70
2023/01/20 18:15:56;;;;;;;25.43;20.93;;;;;;;5.09;54.85;98098.91;8553868;27;20240;-70
2023/01/20 18:19:58;;;;;;;15.87;13.20;;;;;;;5.02;55.10;98102.47;8553946;27;20225;-71
2023/01/20 18:24:02;;;;;;;20.50;16.00;;;;;;;4.94;55.09;98106.91;8553578;27;20273;-71
2023/01/20 18:28:06;;;;;;;23.63;19.70;;;;;;;4.89;55.41;98109.56;8553409;27;20301;-71
2023/01/20 18:32:09;;;;;;;19.13;16.23;;;;;;;4.88;55.18;98105.31;8552894;27;20221;-73
2023/01/20 18:36:13;;;;;;;16.73;14.47;;;;;;;4.87;55.21;98102.75;8553443;27;20516;-70
2023/01/20 18:40:18;;;;;;;17.50;14.97;;;;;;;4.74;55.08;98103.88;8553255;27;20524;-72
2023/01/20 18:44:23;;;;;;;13.60;12.10;;;;;;;4.90;54.57;98108.69;8541397;27;20221;-70
2023/01/20 18:48:25;;;;;;;17.80;15.00;;;;;;;4.91;54.29;98109.53;8552958;27;20223;-71
2023/01/20 18:52:28;;;;;;;18.40;15.03;;;;;;;4.88;54.53;98114.72;8553019;27;20246;-71
2023/01/20 18:56:32;;;;;;;19.57;15.17;;;;;;;4.82;54.42;98117.41;8553086;27;20229;-72
2023/01/20 19:00:36;;;;;;;23.30;17.93;;;;;;;4.86;54.61;98124.19;8552595;27;20225;-73
2023/01/20 19:04:39;;;;;;;21.00;16.87;;;;;;;4.73;54.62;98123.56;8552729;27;20293;-72
2023/01/20 19:08:43;;;;;;;23.87;21.33;;;;;;;4.77;54.70;98130.31;8551828;27;20226;-73
2023/01/20 19:12:46;;;;;;;25.33;19.27;;;;;;;4.62;54.83;98120.34;8551458;27;20559;-71
2023/01/20 19:16:50;;;;;;;21.67;18.00;;;;;;;4.39;54.86;98097.66;8552197;27;20232;-72